sensor_id;sensor_type;location;lat;lon;timestamp;P1;durP1;ratioP1;P2;durP2;ratioP2
19207;SDS011;9737;59.466;18.036;2023-11-21T00:01:36;7.80;;;4.53;;
19207;SDS011;9737;59.466;18.036;2023-11-21T00:04:05;9.68;;;4.78;;
19207;SDS011;9737;59.466;18.036;2023-11-21T00:06:33;9.65;;;4.82;;
19207;SDS011;9737;59.466;18.036;2023-11-21T00:09:03;17.02;;;5.38;;
19207;SDS011;9737;59.466;18.036;2023-11-21T00:11:31;9.32;;;4.70;;
19207;SDS011;9737;59.466;18.036;2023-11-21T00:14:00;9.57;;;4.93;;
19207;SDS011;9737;59.466;18.036;2023-11-21T00:16:27;10.13;;;5.15;;
19207;SDS011;9737;59.466;18.036;2023-11-21T00:18:56;10.07;;;4.68;;
19207;SDS011;9737;59.466;18.036;2023-11-21T00:21:24;7.38;;;4.15;;
19207;SDS011;9737;59.466;18.036;2023-11-21T00:23:52;11.30;;;4.82;;
19207;SDS011;9737;59.466;18.036;2023-11-21T00:26:21;8.57;;;4.28;;
19207;SDS011;9737;59.466;18.036;2023-11-21T00:28:50;9.63;;;4.90;;
19207;SDS011;9737;59.466;18.036;2023-11-21T00:31:18;9.68;;;4.97;;
19207;SDS011;9737;59.466;18.036;2023-11-21T00:33:46;9.30;;;4.80;;
19207;SDS011;9737;59.466;18.036;2023-11-21T00:36:14;11.55;;;4.63;;
19207;SDS011;9737;59.466;18.036;2023-11-21T00:38:43;9.38;;;4.70;;
19207;SDS011;9737;59.466;18.036;2023-11-21T00:41:11;8.10;;;4.40;;
19207;SDS011;9737;59.466;18.036;2023-11-21T00:43:40;8.13;;;4.00;;
19207;SDS011;9737;59.466;18.036;2023-11-21T00:46:08;7.00;;;4.20;;
19207;SDS011;9737;59.466;18.036;2023-11-21T00:48:37;9.23;;;4.55;;
19207;SDS011;9737;59.466;18.036;2023-11-21T00:51:05;8.52;;;4.93;;
19207;SDS011;9737;59.466;18.036;2023-11-21T00:53:37;8.48;;;4.32;;
19207;SDS011;9737;59.466;18.036;2023-11-21T00:56:06;8.45;;;4.63;;
19207;SDS011;9737;59.466;18.036;2023-11-21T00:58:40;7.43;;;4.47;;
19207;SDS011;9737;59.466;18.036;2023-11-21T01:01:13;10.50;;;5.00;;
19207;SDS011;9737;59.466;18.036;2023-11-21T01:03:41;8.02;;;4.43;;
19207;SDS011;9737;59.466;18.036;2023-11-21T01:06:09;7.78;;;4.78;;
19207;SDS011;9737;59.466;18.036;2023-11-21T01:08:40;8.98;;;5.03;;
19207;SDS011;9737;59.466;18.036;2023-11-21T01:11:08;8.32;;;4.78;;
19207;SDS011;9737;59.466;18.036;2023-11-21T01:13:39;8.65;;;4.47;;
19207;SDS011;9737;59.466;18.036;2023-11-21T01:16:11;6.95;;;4.40;;
19207;SDS011;9737;59.466;18.036;2023-11-21T01:18:39;9.30;;;5.20;;
19207;SDS011;9737;59.466;18.036;2023-11-21T01:21:07;9.18;;;4.75;;
19207;SDS011;9737;59.466;18.036;2023-11-21T01:23:35;7.38;;;4.45;;
19207;SDS011;9737;59.466;18.036;2023-11-21T01:26:04;8.68;;;4.85;;
19207;SDS011;9737;59.466;18.036;2023-11-21T01:28:32;10.13;;;4.90;;
19207;SDS011;9737;59.466;18.036;2023-11-21T01:31:01;11.23;;;5.05;;
19207;SDS011;9737;59.466;18.036;2023-11-21T01:33:29;10.50;;;5.13;;
19207;SDS011;9737;59.466;18.036;2023-11-21T01:35:57;10.55;;;4.88;;
19207;SDS011;9737;59.466;18.036;2023-11-21T01:38:26;9.07;;;4.85;;
19207;SDS011;9737;59.466;18.036;2023-11-21T01:40:54;8.05;;;4.90;;
19207;SDS011;9737;59.466;18.036;2023-11-21T01:43:22;9.55;;;4.88;;
19207;SDS011;9737;59.466;18.036;2023-11-21T01:45:50;9.48;;;4.70;;
19207;SDS011;9737;59.466;18.036;2023-11-21T01:48:19;8.90;;;4.95;;
19207;SDS011;9737;59.466;18.036;2023-11-21T01:50:47;8.30;;;4.75;;
19207;SDS011;9737;59.466;18.036;2023-11-21T01:53:16;8.90;;;4.90;;
19207;SDS011;9737;59.466;18.036;2023-11-21T01:55:44;7.47;;;4.63;;
19207;SDS011;9737;59.466;18.036;2023-11-21T01:58:13;7.57;;;4.18;;
19207;SDS011;9737;59.466;18.036;2023-11-21T02:00:43;8.38;;;4.95;;
19207;SDS011;9737;59.466;18.036;2023-11-21T02:03:11;8.30;;;4.75;;
19207;SDS011;9737;59.466;18.036;2023-11-21T02:05:40;8.32;;;4.47;;
19207;SDS011;9737;59.466;18.036;2023-11-21T02:08:10;7.15;;;4.53;;
19207;SDS011;9737;59.466;18.036;2023-11-21T02:10:38;7.18;;;4.55;;
19207;SDS011;9737;59.466;18.036;2023-11-21T02:13:07;8.95;;;4.63;;
19207;SDS011;9737;59.466;18.036;2023-11-21T02:15:35;8.90;;;4.57;;
19207;SDS011;9737;59.466;18.036;2023-11-21T02:18:04;9.68;;;4.47;;
19207;SDS011;9737;59.466;18.036;2023-11-21T02:20:33;8.00;;;4.50;;
19207;SDS011;9737;59.466;18.036;2023-11-21T02:23:04;9.10;;;4.80;;
19207;SDS011;9737;59.466;18.036;2023-11-21T02:25:33;8.93;;;5.00;;
19207;SDS011;9737;59.466;18.036;2023-11-21T02:28:05;9.27;;;4.82;;
19207;SDS011;9737;59.466;18.036;2023-11-21T02:30:33;10.07;;;4.78;;
19207;SDS011;9737;59.466;18.036;2023-11-21T02:33:02;8.75;;;4.57;;
19207;SDS011;9737;59.466;18.036;2023-11-21T02:35:31;8.55;;;4.57;;
19207;SDS011;9737;59.466;18.036;2023-11-21T02:37:59;8.60;;;4.85;;
19207;SDS011;9737;59.466;18.036;2023-11-21T02:40:28;14.15;;;5.20;;
19207;SDS011;9737;59.466;18.036;2023-11-21T02:42:57;9.07;;;5.15;;
19207;SDS011;9737;59.466;18.036;2023-11-21T02:45:26;8.52;;;4.68;;
19207;SDS011;9737;59.466;18.036;2023-11-21T02:47:54;9.63;;;5.50;;
19207;SDS011;9737;59.466;18.036;2023-11-21T02:50:23;8.57;;;5.15;;
19207;SDS011;9737;59.466;18.036;2023-11-21T02:52:51;11.48;;;5.63;;
19207;SDS011;9737;59.466;18.036;2023-11-21T02:55:19;9.10;;;5.53;;
19207;SDS011;9737;59.466;18.036;2023-11-21T02:57:48;8.55;;;5.05;;
19207;SDS011;9737;59.466;18.036;2023-11-21T03:00:17;10.30;;;5.18;;
19207;SDS011;9737;59.466;18.036;2023-11-21T03:02:45;9.55;;;5.20;;
19207;SDS011;9737;59.466;18.036;2023-11-21T03:05:14;11.15;;;5.63;;
19207;SDS011;9737;59.466;18.036;2023-11-21T03:07:42;9.15;;;5.38;;
19207;SDS011;9737;59.466;18.036;2023-11-21T03:10:10;9.93;;;5.25;;
19207;SDS011;9737;59.466;18.036;2023-11-21T03:12:38;9.52;;;5.00;;
19207;SDS011;9737;59.466;18.036;2023-11-21T03:15:08;9.75;;;5.53;;
19207;SDS011;9737;59.466;18.036;2023-11-21T03:17:36;9.40;;;5.22;;
19207;SDS011;9737;59.466;18.036;2023-11-21T03:20:05;8.55;;;5.03;;
19207;SDS011;9737;59.466;18.036;2023-11-21T03:22:37;7.95;;;4.82;;
19207;SDS011;9737;59.466;18.036;2023-11-21T03:25:06;9.60;;;5.38;;
19207;SDS011;9737;59.466;18.036;2023-11-21T03:27:37;9.00;;;4.90;;
19207;SDS011;9737;59.466;18.036;2023-11-21T03:30:08;9.70;;;5.22;;
19207;SDS011;9737;59.466;18.036;2023-11-21T03:32:37;9.82;;;5.20;;
19207;SDS011;9737;59.466;18.036;2023-11-21T03:35:05;9.00;;;5.47;;
19207;SDS011;9737;59.466;18.036;2023-11-21T03:37:33;8.27;;;4.65;;
19207;SDS011;9737;59.466;18.036;2023-11-21T03:40:01;7.97;;;4.60;;
19207;SDS011;9737;59.466;18.036;2023-11-21T03:42:30;8.63;;;4.43;;
19207;SDS011;9737;59.466;18.036;2023-11-21T03:44:58;8.55;;;4.28;;
19207;SDS011;9737;59.466;18.036;2023-11-21T03:47:27;7.80;;;4.63;;
19207;SDS011;9737;59.466;18.036;2023-11-21T03:49:55;7.15;;;4.60;;
19207;SDS011;9737;59.466;18.036;2023-11-21T03:52:23;7.82;;;4.35;;
19207;SDS011;9737;59.466;18.036;2023-11-21T03:54:51;5.85;;;3.90;;
19207;SDS011;9737;59.466;18.036;2023-11-21T03:57:19;6.55;;;4.13;;
19207;SDS011;9737;59.466;18.036;2023-11-21T03:59:47;7.93;;;4.10;;
19207;SDS011;9737;59.466;18.036;2023-11-21T04:02:15;6.53;;;3.95;;
19207;SDS011;9737;59.466;18.036;2023-11-21T04:04:45;7.40;;;4.03;;
19207;SDS011;9737;59.466;18.036;2023-11-21T04:07:13;5.07;;;3.80;;
19207;SDS011;9737;59.466;18.036;2023-11-21T04:09:41;5.78;;;3.58;;
19207;SDS011;9737;59.466;18.036;2023-11-21T04:12:09;6.35;;;3.83;;
19207;SDS011;9737;59.466;18.036;2023-11-21T04:14:37;6.53;;;3.85;;
19207;SDS011;9737;59.466;18.036;2023-11-21T04:17:05;8.35;;;4.30;;
19207;SDS011;9737;59.466;18.036;2023-11-21T04:19:33;6.03;;;4.07;;
19207;SDS011;9737;59.466;18.036;2023-11-21T04:22:03;6.45;;;4.05;;
19207;SDS011;9737;59.466;18.036;2023-11-21T04:24:31;5.97;;;4.10;;
19207;SDS011;9737;59.466;18.036;2023-11-21T04:26:59;5.88;;;4.07;;
19207;SDS011;9737;59.466;18.036;2023-11-21T04:29:26;5.90;;;4.05;;
19207;SDS011;9737;59.466;18.036;2023-11-21T04:31:54;5.97;;;4.07;;
19207;SDS011;9737;59.466;18.036;2023-11-21T04:34:22;6.53;;;4.25;;
19207;SDS011;9737;59.466;18.036;2023-11-21T04:36:50;5.90;;;4.28;;
19207;SDS011;9737;59.466;18.036;2023-11-21T04:39:19;7.15;;;4.78;;
19207;SDS011;9737;59.466;18.036;2023-11-21T04:41:47;5.82;;;3.95;;
19207;SDS011;9737;59.466;18.036;2023-11-21T04:44:15;6.25;;;4.38;;
19207;SDS011;9737;59.466;18.036;2023-11-21T04:46:43;5.97;;;4.25;;
19207;SDS011;9737;59.466;18.036;2023-11-21T04:49:11;5.53;;;4.15;;
19207;SDS011;9737;59.466;18.036;2023-11-21T04:51:39;7.20;;;4.10;;
19207;SDS011;9737;59.466;18.036;2023-11-21T04:54:07;4.82;;;3.80;;
19207;SDS011;9737;59.466;18.036;2023-11-21T04:56:36;5.85;;;4.03;;
19207;SDS011;9737;59.466;18.036;2023-11-21T04:59:04;5.20;;;3.88;;
19207;SDS011;9737;59.466;18.036;2023-11-21T05:01:32;5.75;;;3.97;;
19207;SDS011;9737;59.466;18.036;2023-11-21T05:04:00;5.13;;;3.78;;
19207;SDS011;9737;59.466;18.036;2023-11-21T05:06:28;5.75;;;3.90;;
19207;SDS011;9737;59.466;18.036;2023-11-21T05:08:56;6.03;;;4.00;;
19207;SDS011;9737;59.466;18.036;2023-11-21T05:11:25;6.85;;;3.92;;
19207;SDS011;9737;59.466;18.036;2023-11-21T05:13:54;8.25;;;3.95;;
19207;SDS011;9737;59.466;18.036;2023-11-21T05:16:25;6.78;;;4.20;;
19207;SDS011;9737;59.466;18.036;2023-11-21T05:18:54;6.47;;;4.25;;
19207;SDS011;9737;59.466;18.036;2023-11-21T05:21:27;5.25;;;3.90;;
19207;SDS011;9737;59.466;18.036;2023-11-21T05:23:56;6.10;;;4.43;;
19207;SDS011;9737;59.466;18.036;2023-11-21T05:26:24;5.15;;;3.75;;
19207;SDS011;9737;59.466;18.036;2023-11-21T05:28:53;6.43;;;4.10;;
19207;SDS011;9737;59.466;18.036;2023-11-21T05:31:21;4.95;;;3.83;;
19207;SDS011;9737;59.466;18.036;2023-11-21T05:33:49;5.22;;;3.88;;
19207;SDS011;9737;59.466;18.036;2023-11-21T05:36:17;5.82;;;4.05;;
19207;SDS011;9737;59.466;18.036;2023-11-21T05:38:44;7.13;;;4.10;;
19207;SDS011;9737;59.466;18.036;2023-11-21T05:41:12;5.55;;;4.03;;
19207;SDS011;9737;59.466;18.036;2023-11-21T05:43:40;6.32;;;4.25;;
19207;SDS011;9737;59.466;18.036;2023-11-21T05:46:09;5.85;;;3.60;;
19207;SDS011;9737;59.466;18.036;2023-11-21T05:48:37;5.55;;;3.88;;
19207;SDS011;9737;59.466;18.036;2023-11-21T05:51:06;5.85;;;4.10;;
19207;SDS011;9737;59.466;18.036;2023-11-21T05:53:34;5.88;;;4.00;;
19207;SDS011;9737;59.466;18.036;2023-11-21T05:56:02;6.97;;;3.83;;
19207;SDS011;9737;59.466;18.036;2023-11-21T05:58:31;4.60;;;3.67;;
19207;SDS011;9737;59.466;18.036;2023-11-21T06:00:59;5.97;;;4.10;;
19207;SDS011;9737;59.466;18.036;2023-11-21T06:03:28;6.13;;;4.07;;
19207;SDS011;9737;59.466;18.036;2023-11-21T06:05:56;6.07;;;4.00;;
19207;SDS011;9737;59.466;18.036;2023-11-21T06:08:24;6.00;;;4.25;;
19207;SDS011;9737;59.466;18.036;2023-11-21T06:10:52;6.80;;;4.18;;
19207;SDS011;9737;59.466;18.036;2023-11-21T06:13:19;7.13;;;4.00;;
19207;SDS011;9737;59.466;18.036;2023-11-21T06:15:51;6.60;;;3.85;;
19207;SDS011;9737;59.466;18.036;2023-11-21T06:18:19;5.40;;;3.63;;
19207;SDS011;9737;59.466;18.036;2023-11-21T06:20:48;7.03;;;4.28;;
19207;SDS011;9737;59.466;18.036;2023-11-21T06:23:16;6.25;;;3.80;;
19207;SDS011;9737;59.466;18.036;2023-11-21T06:25:44;6.40;;;4.13;;
19207;SDS011;9737;59.466;18.036;2023-11-21T06:28:12;8.70;;;4.03;;
19207;SDS011;9737;59.466;18.036;2023-11-21T06:30:43;6.00;;;4.35;;
19207;SDS011;9737;59.466;18.036;2023-11-21T06:33:12;8.80;;;4.28;;
19207;SDS011;9737;59.466;18.036;2023-11-21T06:35:40;6.28;;;4.07;;
19207;SDS011;9737;59.466;18.036;2023-11-21T06:38:09;7.22;;;4.30;;
19207;SDS011;9737;59.466;18.036;2023-11-21T06:40:37;6.32;;;4.13;;
19207;SDS011;9737;59.466;18.036;2023-11-21T06:43:05;6.22;;;4.03;;
19207;SDS011;9737;59.466;18.036;2023-11-21T06:45:33;6.20;;;4.20;;
19207;SDS011;9737;59.466;18.036;2023-11-21T06:48:01;6.10;;;4.20;;
19207;SDS011;9737;59.466;18.036;2023-11-21T06:50:29;7.93;;;4.82;;
19207;SDS011;9737;59.466;18.036;2023-11-21T06:52:57;6.80;;;4.20;;
19207;SDS011;9737;59.466;18.036;2023-11-21T06:55:26;6.63;;;4.32;;
19207;SDS011;9737;59.466;18.036;2023-11-21T06:57:54;8.82;;;4.47;;
19207;SDS011;9737;59.466;18.036;2023-11-21T07:00:22;7.43;;;4.65;;
19207;SDS011;9737;59.466;18.036;2023-11-21T07:02:50;5.43;;;3.75;;
19207;SDS011;9737;59.466;18.036;2023-11-21T07:05:18;7.53;;;4.22;;
19207;SDS011;9737;59.466;18.036;2023-11-21T07:07:48;6.05;;;4.10;;
19207;SDS011;9737;59.466;18.036;2023-11-21T07:10:17;7.30;;;4.55;;
19207;SDS011;9737;59.466;18.036;2023-11-21T07:12:46;7.63;;;4.45;;
19207;SDS011;9737;59.466;18.036;2023-11-21T07:15:14;7.35;;;4.18;;
19207;SDS011;9737;59.466;18.036;2023-11-21T07:17:41;7.20;;;4.47;;
19207;SDS011;9737;59.466;18.036;2023-11-21T07:20:10;9.52;;;4.60;;
19207;SDS011;9737;59.466;18.036;2023-11-21T07:22:39;7.93;;;4.45;;
19207;SDS011;9737;59.466;18.036;2023-11-21T07:25:07;6.28;;;4.30;;
19207;SDS011;9737;59.466;18.036;2023-11-21T07:27:36;5.60;;;4.00;;
19207;SDS011;9737;59.466;18.036;2023-11-21T07:30:06;6.75;;;4.40;;
19207;SDS011;9737;59.466;18.036;2023-11-21T07:32:36;6.15;;;4.30;;
19207;SDS011;9737;59.466;18.036;2023-11-21T07:35:07;6.07;;;4.28;;
19207;SDS011;9737;59.466;18.036;2023-11-21T07:37:36;7.78;;;4.85;;
19207;SDS011;9737;59.466;18.036;2023-11-21T07:40:04;7.80;;;4.85;;
19207;SDS011;9737;59.466;18.036;2023-11-21T07:42:35;8.50;;;5.35;;
19207;SDS011;9737;59.466;18.036;2023-11-21T07:45:03;7.75;;;4.82;;
19207;SDS011;9737;59.466;18.036;2023-11-21T07:47:34;6.65;;;4.55;;
19207;SDS011;9737;59.466;18.036;2023-11-21T07:50:02;8.40;;;5.13;;
19207;SDS011;9737;59.466;18.036;2023-11-21T07:52:31;11.60;;;4.95;;
19207;SDS011;9737;59.466;18.036;2023-11-21T07:54:59;10.40;;;4.95;;
19207;SDS011;9737;59.466;18.036;2023-11-21T07:57:28;7.85;;;4.72;;
19207;SDS011;9737;59.466;18.036;2023-11-21T07:59:55;9.77;;;4.93;;
19207;SDS011;9737;59.466;18.036;2023-11-21T08:02:25;7.65;;;5.07;;
19207;SDS011;9737;59.466;18.036;2023-11-21T08:04:54;9.23;;;5.22;;
19207;SDS011;9737;59.466;18.036;2023-11-21T08:07:23;8.55;;;5.22;;
19207;SDS011;9737;59.466;18.036;2023-11-21T08:09:52;8.88;;;4.65;;
19207;SDS011;9737;59.466;18.036;2023-11-21T08:12:20;6.40;;;4.15;;
19207;SDS011;9737;59.466;18.036;2023-11-21T08:14:48;7.75;;;4.75;;
19207;SDS011;9737;59.466;18.036;2023-11-21T08:17:15;7.32;;;4.93;;
19207;SDS011;9737;59.466;18.036;2023-11-21T08:19:47;9.80;;;5.00;;
19207;SDS011;9737;59.466;18.036;2023-11-21T08:22:16;8.45;;;4.78;;
19207;SDS011;9737;59.466;18.036;2023-11-21T08:24:44;10.57;;;4.95;;
19207;SDS011;9737;59.466;18.036;2023-11-21T08:27:13;9.35;;;5.57;;
19207;SDS011;9737;59.466;18.036;2023-11-21T08:29:42;9.65;;;5.15;;
19207;SDS011;9737;59.466;18.036;2023-11-21T08:32:10;8.88;;;4.60;;
19207;SDS011;9737;59.466;18.036;2023-11-21T08:34:38;8.18;;;5.00;;
19207;SDS011;9737;59.466;18.036;2023-11-21T08:37:08;8.35;;;4.60;;
19207;SDS011;9737;59.466;18.036;2023-11-21T08:39:37;5.68;;;3.80;;
19207;SDS011;9737;59.466;18.036;2023-11-21T08:42:05;6.60;;;4.28;;
19207;SDS011;9737;59.466;18.036;2023-11-21T08:44:32;6.15;;;3.85;;
19207;SDS011;9737;59.466;18.036;2023-11-21T08:47:01;6.18;;;4.22;;
19207;SDS011;9737;59.466;18.036;2023-11-21T08:49:33;6.55;;;4.22;;
19207;SDS011;9737;59.466;18.036;2023-11-21T08:52:01;6.70;;;4.03;;
19207;SDS011;9737;59.466;18.036;2023-11-21T08:54:32;6.63;;;4.25;;
19207;SDS011;9737;59.466;18.036;2023-11-21T08:57:01;4.88;;;3.80;;
19207;SDS011;9737;59.466;18.036;2023-11-21T08:59:29;5.63;;;4.03;;
19207;SDS011;9737;59.466;18.036;2023-11-21T09:01:57;6.22;;;3.88;;
19207;SDS011;9737;59.466;18.036;2023-11-21T09:04:25;8.32;;;3.70;;
19207;SDS011;9737;59.466;18.036;2023-11-21T09:06:54;6.97;;;4.28;;
19207;SDS011;9737;59.466;18.036;2023-11-21T09:09:21;8.07;;;4.10;;
19207;SDS011;9737;59.466;18.036;2023-11-21T09:11:52;6.95;;;4.55;;
19207;SDS011;9737;59.466;18.036;2023-11-21T09:14:20;6.95;;;3.90;;
19207;SDS011;9737;59.466;18.036;2023-11-21T09:16:48;6.18;;;3.75;;
19207;SDS011;9737;59.466;18.036;2023-11-21T09:19:17;6.80;;;4.18;;
19207;SDS011;9737;59.466;18.036;2023-11-21T09:21:45;7.20;;;4.78;;
19207;SDS011;9737;59.466;18.036;2023-11-21T09:24:12;7.03;;;4.10;;
19207;SDS011;9737;59.466;18.036;2023-11-21T09:26:40;7.43;;;4.28;;
19207;SDS011;9737;59.466;18.036;2023-11-21T09:29:09;6.93;;;4.32;;
19207;SDS011;9737;59.466;18.036;2023-11-21T09:31:37;6.13;;;4.22;;
19207;SDS011;9737;59.466;18.036;2023-11-21T09:34:05;5.50;;;3.95;;
19207;SDS011;9737;59.466;18.036;2023-11-21T09:36:33;6.05;;;4.03;;
19207;SDS011;9737;59.466;18.036;2023-11-21T09:39:01;6.53;;;4.30;;
19207;SDS011;9737;59.466;18.036;2023-11-21T09:41:34;7.20;;;4.30;;
19207;SDS011;9737;59.466;18.036;2023-11-21T09:44:13;7.65;;;4.65;;
19207;SDS011;9737;59.466;18.036;2023-11-21T09:46:44;5.38;;;3.80;;
19207;SDS011;9737;59.466;18.036;2023-11-21T09:49:16;6.15;;;4.38;;
19207;SDS011;9737;59.466;18.036;2023-11-21T09:51:46;7.50;;;4.32;;
19207;SDS011;9737;59.466;18.036;2023-11-21T09:54:15;6.40;;;4.28;;
19207;SDS011;9737;59.466;18.036;2023-11-21T09:56:45;8.02;;;4.75;;
19207;SDS011;9737;59.466;18.036;2023-11-21T09:59:15;6.50;;;4.57;;
19207;SDS011;9737;59.466;18.036;2023-11-21T10:01:43;6.32;;;4.50;;
19207;SDS011;9737;59.466;18.036;2023-11-21T10:04:11;10.95;;;5.80;;
19207;SDS011;9737;59.466;18.036;2023-11-21T10:06:39;9.05;;;5.28;;
19207;SDS011;9737;59.466;18.036;2023-11-21T10:09:09;9.65;;;5.53;;
19207;SDS011;9737;59.466;18.036;2023-11-21T10:11:39;10.43;;;5.50;;
19207;SDS011;9737;59.466;18.036;2023-11-21T10:14:08;10.73;;;6.30;;
19207;SDS011;9737;59.466;18.036;2023-11-21T10:16:41;11.63;;;6.63;;
19207;SDS011;9737;59.466;18.036;2023-11-21T10:19:13;10.88;;;5.43;;
19207;SDS011;9737;59.466;18.036;2023-11-21T10:21:42;9.63;;;4.95;;
19207;SDS011;9737;59.466;18.036;2023-11-21T10:24:10;8.90;;;5.15;;
19207;SDS011;9737;59.466;18.036;2023-11-21T10:26:38;9.75;;;5.90;;
19207;SDS011;9737;59.466;18.036;2023-11-21T10:29:18;11.13;;;5.57;;
19207;SDS011;9737;59.466;18.036;2023-11-21T10:31:50;10.90;;;5.78;;
19207;SDS011;9737;59.466;18.036;2023-11-21T10:34:21;7.82;;;5.00;;
19207;SDS011;9737;59.466;18.036;2023-11-21T10:36:49;7.88;;;4.90;;
19207;SDS011;9737;59.466;18.036;2023-11-21T10:39:17;9.85;;;4.60;;
19207;SDS011;9737;59.466;18.036;2023-11-21T10:41:46;9.55;;;4.88;;
19207;SDS011;9737;59.466;18.036;2023-11-21T10:44:15;8.27;;;4.75;;
19207;SDS011;9737;59.466;18.036;2023-11-21T10:46:49;10.52;;;4.90;;
19207;SDS011;9737;59.466;18.036;2023-11-21T10:49:22;9.80;;;4.97;;
19207;SDS011;9737;59.466;18.036;2023-11-21T10:51:51;6.82;;;4.68;;
19207;SDS011;9737;59.466;18.036;2023-11-21T10:54:20;7.60;;;5.38;;
19207;SDS011;9737;59.466;18.036;2023-11-21T10:56:49;8.77;;;5.15;;
19207;SDS011;9737;59.466;18.036;2023-11-21T10:59:20;12.60;;;6.72;;
19207;SDS011;9737;59.466;18.036;2023-11-21T11:01:53;7.70;;;5.35;;
19207;SDS011;9737;59.466;18.036;2023-11-21T11:04:25;9.80;;;4.97;;
19207;SDS011;9737;59.466;18.036;2023-11-21T11:06:54;7.63;;;4.68;;
19207;SDS011;9737;59.466;18.036;2023-11-21T11:09:24;11.25;;;4.63;;
19207;SDS011;9737;59.466;18.036;2023-11-21T11:11:52;7.43;;;4.63;;
19207;SDS011;9737;59.466;18.036;2023-11-21T11:14:20;6.80;;;4.55;;
19207;SDS011;9737;59.466;18.036;2023-11-21T11:16:54;7.72;;;4.97;;
19207;SDS011;9737;59.466;18.036;2023-11-21T11:19:23;7.80;;;4.85;;
19207;SDS011;9737;59.466;18.036;2023-11-21T11:21:53;8.05;;;4.95;;
19207;SDS011;9737;59.466;18.036;2023-11-21T11:27:42;8.50;;;5.07;;
19207;SDS011;9737;59.466;18.036;2023-11-21T11:30:17;9.38;;;4.95;;
19207;SDS011;9737;59.466;18.036;2023-11-21T11:32:58;8.43;;;4.90;;
19207;SDS011;9737;59.466;18.036;2023-11-21T11:35:38;8.30;;;4.53;;
19207;SDS011;9737;59.466;18.036;2023-11-21T11:38:13;6.70;;;4.68;;
19207;SDS011;9737;59.466;18.036;2023-11-21T11:40:44;6.10;;;4.28;;
19207;SDS011;9737;59.466;18.036;2023-11-21T11:43:16;5.95;;;3.65;;
19207;SDS011;9737;59.466;18.036;2023-11-21T11:45:55;5.47;;;3.25;;
19207;SDS011;9737;59.466;18.036;2023-11-21T11:48:25;6.03;;;3.50;;
19207;SDS011;9737;59.466;18.036;2023-11-21T11:51:02;4.70;;;3.13;;
19207;SDS011;9737;59.466;18.036;2023-11-21T11:53:38;5.43;;;3.10;;
19207;SDS011;9737;59.466;18.036;2023-11-21T11:56:23;4.68;;;3.00;;
19207;SDS011;9737;59.466;18.036;2023-11-21T11:58:53;6.07;;;2.88;;
19207;SDS011;9737;59.466;18.036;2023-11-21T12:01:24;4.57;;;3.00;;
19207;SDS011;9737;59.466;18.036;2023-11-21T12:07:02;4.45;;;3.10;;
19207;SDS011;9737;59.466;18.036;2023-11-21T12:09:31;5.00;;;3.40;;
19207;SDS011;9737;59.466;18.036;2023-11-21T12:11:59;6.28;;;3.05;;
19207;SDS011;9737;59.466;18.036;2023-11-21T12:14:27;6.25;;;3.10;;
19207;SDS011;9737;59.466;18.036;2023-11-21T12:16:56;4.00;;;3.05;;
19207;SDS011;9737;59.466;18.036;2023-11-21T12:19:23;3.50;;;2.97;;
19207;SDS011;9737;59.466;18.036;2023-11-21T12:21:53;5.45;;;2.90;;
19207;SDS011;9737;59.466;18.036;2023-11-21T12:24:22;4.85;;;3.30;;
19207;SDS011;9737;59.466;18.036;2023-11-21T12:26:50;6.57;;;3.17;;
19207;SDS011;9737;59.466;18.036;2023-11-21T12:29:18;4.10;;;2.90;;
19207;SDS011;9737;59.466;18.036;2023-11-21T12:31:46;3.42;;;2.50;;
19207;SDS011;9737;59.466;18.036;2023-11-21T12:34:16;3.35;;;2.60;;
19207;SDS011;9737;59.466;18.036;2023-11-21T12:36:46;3.45;;;2.60;;
19207;SDS011;9737;59.466;18.036;2023-11-21T12:39:15;5.78;;;2.55;;
19207;SDS011;9737;59.466;18.036;2023-11-21T12:41:43;3.35;;;2.83;;
19207;SDS011;9737;59.466;18.036;2023-11-21T12:44:12;4.15;;;3.05;;
19207;SDS011;9737;59.466;18.036;2023-11-21T12:46:40;4.20;;;3.00;;
19207;SDS011;9737;59.466;18.036;2023-11-21T12:49:11;3.40;;;2.88;;
19207;SDS011;9737;59.466;18.036;2023-11-21T12:51:46;5.55;;;3.13;;
19207;SDS011;9737;59.466;18.036;2023-11-21T12:54:14;3.47;;;2.83;;
19207;SDS011;9737;59.466;18.036;2023-11-21T12:56:44;4.25;;;2.90;;
19207;SDS011;9737;59.466;18.036;2023-11-21T12:59:13;4.80;;;2.95;;
19207;SDS011;9737;59.466;18.036;2023-11-21T13:01:42;5.13;;;3.42;;
19207;SDS011;9737;59.466;18.036;2023-11-21T13:04:11;4.07;;;3.05;;
19207;SDS011;9737;59.466;18.036;2023-11-21T13:06:39;4.88;;;2.90;;
19207;SDS011;9737;59.466;18.036;2023-11-21T13:09:10;3.70;;;2.83;;
19207;SDS011;9737;59.466;18.036;2023-11-21T13:11:38;3.47;;;2.50;;
19207;SDS011;9737;59.466;18.036;2023-11-21T13:14:07;4.03;;;2.97;;
19207;SDS011;9737;59.466;18.036;2023-11-21T13:16:37;3.95;;;2.90;;
19207;SDS011;9737;59.466;18.036;2023-11-21T13:19:05;3.97;;;3.00;;
19207;SDS011;9737;59.466;18.036;2023-11-21T13:21:35;4.22;;;2.95;;
19207;SDS011;9737;59.466;18.036;2023-11-21T13:24:03;5.78;;;3.40;;
19207;SDS011;9737;59.466;18.036;2023-11-21T13:26:32;3.30;;;3.00;;
19207;SDS011;9737;59.466;18.036;2023-11-21T13:29:01;4.90;;;3.10;;
19207;SDS011;9737;59.466;18.036;2023-11-21T13:31:31;4.85;;;3.47;;
19207;SDS011;9737;59.466;18.036;2023-11-21T13:34:03;4.13;;;3.15;;
19207;SDS011;9737;59.466;18.036;2023-11-21T13:36:33;4.72;;;3.50;;
19207;SDS011;9737;59.466;18.036;2023-11-21T13:39:02;5.10;;;3.50;;
19207;SDS011;9737;59.466;18.036;2023-11-21T13:41:36;4.53;;;3.47;;
19207;SDS011;9737;59.466;18.036;2023-11-21T13:44:05;3.90;;;2.90;;
19207;SDS011;9737;59.466;18.036;2023-11-21T13:46:43;3.88;;;3.10;;
19207;SDS011;9737;59.466;18.036;2023-11-21T13:49:12;4.40;;;3.20;;
19207;SDS011;9737;59.466;18.036;2023-11-21T13:51:42;4.80;;;2.90;;
19207;SDS011;9737;59.466;18.036;2023-11-21T13:54:11;4.03;;;3.00;;
19207;SDS011;9737;59.466;18.036;2023-11-21T13:56:42;3.97;;;2.90;;
19207;SDS011;9737;59.466;18.036;2023-11-21T13:59:11;4.65;;;3.40;;
19207;SDS011;9737;59.466;18.036;2023-11-21T14:01:47;4.25;;;3.20;;
19207;SDS011;9737;59.466;18.036;2023-11-21T14:04:24;4.30;;;3.10;;
19207;SDS011;9737;59.466;18.036;2023-11-21T14:07:21;5.90;;;3.35;;
19207;SDS011;9737;59.466;18.036;2023-11-21T14:09:57;4.50;;;3.20;;
19207;SDS011;9737;59.466;18.036;2023-11-21T14:12:26;4.57;;;3.38;;
19207;SDS011;9737;59.466;18.036;2023-11-21T14:14:54;4.43;;;3.03;;
19207;SDS011;9737;59.466;18.036;2023-11-21T14:17:22;4.25;;;3.58;;
19207;SDS011;9737;59.466;18.036;2023-11-21T14:19:51;5.30;;;3.75;;
19207;SDS011;9737;59.466;18.036;2023-11-21T14:22:19;6.80;;;3.90;;
19207;SDS011;9737;59.466;18.036;2023-11-21T14:24:47;5.00;;;3.40;;
19207;SDS011;9737;59.466;18.036;2023-11-21T14:27:16;9.00;;;4.18;;
19207;SDS011;9737;59.466;18.036;2023-11-21T14:29:46;6.95;;;4.38;;
19207;SDS011;9737;59.466;18.036;2023-11-21T14:32:15;6.38;;;3.70;;
19207;SDS011;9737;59.466;18.036;2023-11-21T14:34:43;11.07;;;5.00;;
19207;SDS011;9737;59.466;18.036;2023-11-21T14:37:13;6.82;;;4.63;;
19207;SDS011;9737;59.466;18.036;2023-11-21T14:39:41;8.80;;;4.80;;
19207;SDS011;9737;59.466;18.036;2023-11-21T14:42:11;9.95;;;4.60;;
19207;SDS011;9737;59.466;18.036;2023-11-21T14:44:41;7.88;;;4.78;;
19207;SDS011;9737;59.466;18.036;2023-11-21T14:47:10;8.82;;;4.88;;
19207;SDS011;9737;59.466;18.036;2023-11-21T14:49:43;9.15;;;4.93;;
19207;SDS011;9737;59.466;18.036;2023-11-21T14:52:20;9.10;;;4.75;;
19207;SDS011;9737;59.466;18.036;2023-11-21T14:55:01;8.55;;;4.95;;
19207;SDS011;9737;59.466;18.036;2023-11-21T14:57:43;8.98;;;4.70;;
19207;SDS011;9737;59.466;18.036;2023-11-21T15:00:16;7.03;;;4.20;;
19207;SDS011;9737;59.466;18.036;2023-11-21T15:02:59;7.35;;;4.18;;
19207;SDS011;9737;59.466;18.036;2023-11-21T15:05:28;5.97;;;4.07;;